createdAt,value
2023-05-19T00:01:38.645Z,101065.25
2023-05-19T00:04:41.159Z,101058.66
2023-05-19T00:07:43.135Z,101064.31
2023-05-19T00:10:45.541Z,101055.72
2023-05-19T00:13:49.742Z,101059.31
2023-05-19T00:16:51.857Z,101053.41
2023-05-19T00:19:54.930Z,101063.06
2023-05-19T00:22:56.978Z,101061.31
2023-05-19T00:25:59.066Z,101066.25
2023-05-19T00:29:01.029Z,101058.72
2023-05-19T00:32:03.147Z,101061.34
2023-05-19T00:35:05.818Z,101056.53
2023-05-19T00:38:07.721Z,101045.72
2023-05-19T00:41:09.760Z,101056.59
2023-05-19T00:44:11.801Z,101045.28
2023-05-19T00:47:15.920Z,101053.09
2023-05-19T00:50:18.126Z,101046.69
2023-05-19T00:53:22.648Z,101041.53
2023-05-19T00:56:24.627Z,101042.16
2023-05-19T00:59:28.701Z,101044.56
2023-05-19T01:02:30.825Z,101041.94
2023-05-19T01:05:32.859Z,101041.38
2023-05-19T01:08:37.404Z,101042.12
2023-05-19T01:11:39.450Z,101040.03
2023-05-19T01:14:41.659Z,101040.34
2023-05-19T01:17:54.798Z,101047.22
2023-05-19T01:21:16.125Z,101041.06
2023-05-19T01:24:36.834Z,101033.78
2023-05-19T01:28:03.449Z,101039.50
2023-05-19T01:31:07.533Z,101046.69
2023-05-19T01:34:09.595Z,101050.19
2023-05-19T01:37:11.960Z,101049.72
2023-05-19T01:40:14.115Z,101048.81
2023-05-19T01:43:20.572Z,101038.50
2023-05-19T01:46:22.497Z,101041.22
2023-05-19T01:49:24.467Z,101038.72
2023-05-19T01:52:26.509Z,101031.91
2023-05-19T01:55:28.688Z,101029.75
2023-05-19T01:58:39.824Z,101030.00
2023-05-19T02:01:51.244Z,101030.97
2023-05-19T02:04:57.981Z,101043.53
2023-05-19T02:08:20.177Z,101044.38
2023-05-19T02:11:25.508Z,101037.81
2023-05-19T02:14:32.029Z,101032.81
2023-05-19T02:17:36.524Z,101042.22
2023-05-19T02:20:39.624Z,101040.09
2023-05-19T02:23:42.074Z,101039.25
2023-05-19T02:26:44.095Z,101036.44
2023-05-19T02:29:46.208Z,101040.94
2023-05-19T02:32:48.286Z,101036.16
2023-05-19T02:35:50.833Z,101036.81
2023-05-19T02:38:53.384Z,101039.81
2023-05-19T02:41:58.094Z,101038.16
2023-05-19T02:45:00.810Z,101045.41
2023-05-19T02:48:03.014Z,101036.41
2023-05-19T02:51:05.377Z,101031.34
2023-05-19T02:54:07.362Z,101031.00
2023-05-19T02:57:09.290Z,101027.22
2023-05-19T03:00:11.476Z,101031.53
2023-05-19T03:03:14.005Z,101037.56
2023-05-19T03:06:18.273Z,101035.75
2023-05-19T03:09:20.713Z,101034.63
2023-05-19T03:12:22.963Z,101045.44
2023-05-19T03:15:24.988Z,101030.13
2023-05-19T03:18:27.281Z,101031.75
2023-05-19T03:21:29.242Z,101042.81
2023-05-19T03:24:31.665Z,101045.00
2023-05-19T03:27:33.612Z,101049.97
2023-05-19T03:30:35.723Z,101051.41
2023-05-19T03:33:37.776Z,101053.31
2023-05-19T03:36:40.340Z,101053.78
2023-05-19T03:39:42.272Z,101051.75
2023-05-19T03:42:44.931Z,101045.16
2023-05-19T03:45:47.243Z,101034.06
2023-05-19T03:48:49.228Z,101047.84
2023-05-19T03:51:51.195Z,101052.28
2023-05-19T03:54:53.278Z,101052.00
2023-05-19T03:57:55.351Z,101048.34
2023-05-19T04:00:57.380Z,101048.00
2023-05-19T04:03:59.438Z,101044.59
2023-05-19T04:07:01.487Z,101040.22
2023-05-19T04:10:06.806Z,101056.06
2023-05-19T04:13:08.835Z,101056.63
2023-05-19T04:16:11.172Z,101054.28
2023-05-19T04:19:13.295Z,101055.31
2023-05-19T04:22:15.273Z,101059.47
2023-05-19T04:25:17.242Z,101058.22
2023-05-19T04:28:19.291Z,101058.69
2023-05-19T04:31:21.916Z,101052.59
2023-05-19T04:34:23.991Z,101070.84
2023-05-19T04:37:26.366Z,101068.69
2023-05-19T04:40:31.788Z,101075.09
2023-05-19T04:43:34.443Z,101078.88
2023-05-19T04:46:36.827Z,101072.72
2023-05-19T04:49:39.268Z,101080.41
2023-05-19T04:52:45.727Z,101078.78
2023-05-19T04:55:47.926Z,101071.91
2023-05-19T04:58:50.193Z,101074.94
2023-05-19T05:01:52.512Z,101080.59
2023-05-19T05:04:54.987Z,101075.31
2023-05-19T05:07:57.745Z,101081.03
2023-05-19T05:11:00.064Z,101078.47
2023-05-19T05:14:02.271Z,101078.72
2023-05-19T05:17:04.458Z,101086.12
2023-05-19T05:20:07.475Z,101090.47
2023-05-19T05:23:10.056Z,101086.91
2023-05-19T05:26:24.346Z,101092.34
2023-05-19T05:29:26.427Z,101100.53
2023-05-19T05:32:28.969Z,101097.47
2023-05-19T05:35:31.162Z,101088.72
2023-05-19T05:38:33.577Z,101095.16
2023-05-19T05:41:35.628Z,101085.28
2023-05-19T05:44:37.620Z,101089.47
2023-05-19T05:47:41.510Z,101089.38
2023-05-19T05:50:44.471Z,101092.13
2023-05-19T05:53:46.778Z,101090.97
2023-05-19T05:56:49.552Z,101086.56
2023-05-19T05:59:52.196Z,101093.56
2023-05-19T06:02:54.547Z,101092.31
2023-05-19T06:05:57.116Z,101094.78
2023-05-19T06:08:59.616Z,101088.09
2023-05-19T06:12:02.349Z,101086.94
2023-05-19T06:15:05.198Z,101090.28
2023-05-19T06:18:09.913Z,101101.19
2023-05-19T06:21:15.304Z,101093.97
2023-05-19T06:24:17.946Z,101103.47
2023-05-19T06:27:20.153Z,101106.09
2023-05-19T06:30:24.951Z,101117.50
2023-05-19T06:33:35.837Z,101110.84
2023-05-19T06:36:38.154Z,101106.78
2023-05-19T06:39:40.435Z,101120.06
2023-05-19T06:42:43.955Z,101122.19
2023-05-19T06:45:46.504Z,101124.06
2023-05-19T06:48:48.881Z,101125.25
2023-05-19T06:51:51.262Z,101124.19
2023-05-19T06:54:53.427Z,101137.56
2023-05-19T06:57:55.984Z,101133.38
2023-05-19T07:00:58.094Z,101134.72
2023-05-19T07:04:01.815Z,101139.09
2023-05-19T07:07:07.907Z,101137.88
2023-05-19T07:10:12.984Z,101139.78
2023-05-19T07:13:16.138Z,101132.41
2023-05-19T07:16:18.267Z,101117.28
2023-05-19T07:19:20.464Z,101126.97
2023-05-19T07:22:27.003Z,101130.09
2023-05-19T07:25:30.735Z,101123.59
2023-05-19T07:28:34.634Z,101119.38
2023-05-19T07:31:37.060Z,101111.00
2023-05-19T07:34:40.214Z,101113.12
2023-05-19T07:37:42.361Z,101105.75
2023-05-19T07:40:44.632Z,101083.72
2023-05-19T07:43:49.038Z,101101.63
2023-05-19T07:46:52.686Z,101104.34
2023-05-19T07:49:55.341Z,101104.00
2023-05-19T07:52:57.353Z,101085.31
2023-05-19T07:55:59.524Z,101096.28
2023-05-19T07:59:01.995Z,101098.81
2023-05-19T08:02:04.136Z,101092.13
2023-05-19T08:05:06.550Z,101077.28
2023-05-19T08:08:08.629Z,101085.63
2023-05-19T08:11:11.384Z,101070.81
2023-05-19T08:14:13.453Z,101075.06
2023-05-19T08:17:15.631Z,101083.00
2023-05-19T08:20:21.134Z,101081.63
2023-05-19T08:23:23.618Z,101071.78
2023-05-19T08:26:26.427Z,101074.81
2023-05-19T08:29:28.508Z,101067.63
2023-05-19T08:32:30.793Z,101079.75
2023-05-19T08:35:32.973Z,101064.31
2023-05-19T08:38:38.105Z,101067.53
2023-05-19T08:41:44.293Z,101068.06
2023-05-19T08:44:50.179Z,101055.22
2023-05-19T08:47:54.586Z,101072.34
2023-05-19T08:51:15.770Z,101072.53
2023-05-19T08:54:26.893Z,101061.28
2023-05-19T08:57:33.684Z,101073.56
2023-05-19T09:00:41.100Z,101076.47
2023-05-19T09:03:47.465Z,101065.78
2023-05-19T09:06:58.766Z,101060.75
2023-05-19T09:10:19.523Z,101055.66
2023-05-19T09:13:35.993Z,101061.81
2023-05-19T09:20:06.135Z,101058.91
2023-05-19T09:23:21.159Z,101062.78
2023-05-19T09:26:23.892Z,101074.47
2023-05-19T09:29:28.098Z,101072.97
2023-05-19T09:36:05.725Z,101060.31
2023-05-19T09:39:25.785Z,101063.44
2023-05-19T09:42:37.826Z,101066.22
2023-05-19T09:45:42.876Z,101068.69
2023-05-19T09:48:48.728Z,101056.34
2023-05-19T09:52:03.341Z,101059.97
2023-05-19T09:55:12.080Z,101049.00
2023-05-19T09:58:50.358Z,101050.94
2023-05-19T10:02:32.802Z,101049.31
2023-05-19T10:05:42.087Z,101034.22
2023-05-19T10:09:06.794Z,101041.69
2023-05-19T10:12:17.881Z,101032.59
2023-05-19T10:18:47.750Z,101022.25
2023-05-19T10:21:50.503Z,101016.25
2023-05-19T10:24:56.353Z,101017.16
2023-05-19T10:28:17.437Z,101015.88
2023-05-19T10:31:22.365Z,101006.50
2023-05-19T10:34:46.268Z,101022.00
2023-05-19T10:38:14.878Z,101014.34
2023-05-19T10:41:23.248Z,101024.91
2023-05-19T10:44:39.773Z,101025.28
2023-05-19T10:47:42.741Z,101019.63
2023-05-19T10:50:52.213Z,101014.75
2023-05-19T10:54:07.799Z,100997.91
2023-05-19T11:01:19.753Z,100995.72
2023-05-19T11:04:24.851Z,100998.91
2023-05-19T11:08:06.037Z,100994.16
2023-05-19T11:11:28.921Z,100997.44
2023-05-19T11:14:37.985Z,100984.88
2023-05-19T11:21:08.162Z,100976.22
2023-05-19T11:24:27.305Z,100981.34
2023-05-19T11:27:31.949Z,100978.50
2023-05-19T11:30:52.722Z,100970.16
2023-05-19T11:34:01.859Z,100969.03
2023-05-19T11:37:10.005Z,100966.34
2023-05-19T11:40:37.562Z,100975.03
2023-05-19T11:43:48.087Z,100974.09
2023-05-19T11:46:51.152Z,100959.63
2023-05-19T11:49:59.386Z,100965.66
2023-05-19T11:53:44.623Z,100957.97
2023-05-19T11:56:44.828Z,100972.41
2023-05-19T11:59:49.826Z,100959.66
2023-05-19T12:02:52.212Z,100949.34
2023-05-19T12:05:54.499Z,100956.47
2023-05-19T12:08:56.695Z,100947.06
2023-05-19T12:11:58.574Z,100950.19
2023-05-19T12:15:02.945Z,100943.22
2023-05-19T12:18:05.019Z,100945.97
2023-05-19T12:21:07.356Z,100940.31
2023-05-19T12:24:09.398Z,100943.97
2023-05-19T12:27:21.383Z,100934.78
2023-05-19T12:30:26.662Z,100929.56
2023-05-19T12:33:28.558Z,100937.41
2023-05-19T12:36:31.914Z,100930.31
2023-05-19T12:39:34.037Z,100923.31
2023-05-19T12:42:36.032Z,100917.69
2023-05-19T12:45:38.980Z,100914.44
2023-05-19T12:48:41.921Z,100915.63
2023-05-19T12:51:46.457Z,100912.09
2023-05-19T12:54:48.494Z,100900.25
2023-05-19T12:57:57.008Z,100902.38
2023-05-19T13:01:00.436Z,100900.38
2023-05-19T13:04:05.398Z,100901.34
2023-05-19T13:07:08.245Z,100901.06
2023-05-19T13:10:10.221Z,100908.69
2023-05-19T13:13:12.550Z,100899.19
2023-05-19T13:16:14.577Z,100905.59
2023-05-19T13:22:25.534Z,100896.22
2023-05-19T13:25:32.801Z,100889.94
2023-05-19T13:28:35.009Z,100880.00
2023-05-19T13:31:37.052Z,100881.25
2023-05-19T13:34:39.004Z,100872.66
2023-05-19T13:37:43.788Z,100872.06
2023-05-19T13:40:45.913Z,100870.16
2023-05-19T13:43:47.766Z,100869.44
2023-05-19T13:46:50.812Z,100861.63
2023-05-19T13:49:54.192Z,100873.72
2023-05-19T13:52:56.355Z,100878.31
2023-05-19T13:55:58.227Z,100878.59
2023-05-19T13:59:00.266Z,100863.09
2023-05-19T14:02:05.664Z,100862.16
2023-05-19T14:05:08.314Z,100855.28
2023-05-19T14:08:11.364Z,100855.91
2023-05-19T14:11:19.963Z,100851.44
2023-05-19T14:14:21.970Z,100855.19
2023-05-19T14:17:24.133Z,100855.69
2023-05-19T14:20:27.951Z,100848.22
2023-05-19T14:23:32.080Z,100847.19
2023-05-19T14:26:34.011Z,100839.38
2023-05-19T14:29:38.067Z,100842.38
2023-05-19T14:32:40.184Z,100841.69
2023-05-19T14:35:42.127Z,100841.59
2023-05-19T14:38:44.167Z,100836.06
2023-05-19T14:41:46.262Z,100849.03
2023-05-19T14:44:48.225Z,100849.50
2023-05-19T14:47:50.196Z,100841.53
2023-05-19T14:50:52.642Z,100848.91
2023-05-19T14:53:54.545Z,100844.84
2023-05-19T14:56:56.449Z,100839.44
2023-05-19T14:59:58.498Z,100831.88
2023-05-19T15:03:00.438Z,100828.84
2023-05-19T15:06:02.402Z,100827.50
2023-05-19T15:09:04.591Z,100833.41
2023-05-19T15:12:06.421Z,100824.84
2023-05-19T15:15:08.835Z,100831.38
2023-05-19T15:18:11.639Z,100819.91
2023-05-19T15:21:13.696Z,100820.63
2023-05-19T15:24:15.681Z,100820.56
2023-05-19T15:27:17.687Z,100822.28
2023-05-19T15:30:19.759Z,100829.84
2023-05-19T15:33:21.719Z,100830.31
2023-05-19T15:36:24.217Z,100831.47
2023-05-19T15:39:26.138Z,100828.69
2023-05-19T15:42:28.145Z,100824.59
2023-05-19T15:45:30.070Z,100822.72
2023-05-19T15:48:32.418Z,100825.94
2023-05-19T15:51:34.453Z,100822.12
2023-05-19T15:54:36.479Z,100822.59
2023-05-19T15:57:38.426Z,100832.00
2023-05-19T16:00:40.516Z,100816.78
2023-05-19T16:03:42.589Z,100818.19
2023-05-19T16:06:44.864Z,100814.53
2023-05-19T16:09:46.955Z,100822.75
2023-05-19T16:12:48.941Z,100821.66
2023-05-19T16:15:50.890Z,100831.44
2023-05-19T16:18:53.071Z,100830.41
2023-05-19T16:21:55.124Z,100821.94
2023-05-19T16:24:57.109Z,100828.00
2023-05-19T16:27:59.096Z,100839.88
2023-05-19T16:31:01.270Z,100832.59
2023-05-19T16:34:03.324Z,100831.91
2023-05-19T16:37:05.233Z,100835.62
2023-05-19T16:40:09.811Z,100829.28
2023-05-19T16:43:11.694Z,100834.41
2023-05-19T16:46:13.694Z,100838.78
2023-05-19T16:49:15.851Z,100836.72
2023-05-19T16:52:17.878Z,100837.22
2023-05-19T16:55:20.318Z,100834.38
2023-05-19T16:58:22.262Z,100823.84
2023-05-19T17:01:24.214Z,100836.75
2023-05-19T17:04:29.384Z,100823.50
2023-05-19T17:07:32.766Z,100826.06
2023-05-19T17:10:34.940Z,100832.41
2023-05-19T17:13:37.220Z,100829.22
2023-05-19T17:16:39.216Z,100828.00
2023-05-19T17:19:41.380Z,100822.03
2023-05-19T17:22:43.471Z,100826.72
2023-05-19T17:25:45.529Z,100834.63
2023-05-19T17:28:47.922Z,100844.06
2023-05-19T17:31:50.010Z,100838.09
2023-05-19T17:34:52.386Z,100842.72
2023-05-19T17:37:54.317Z,100841.06
2023-05-19T17:40:59.749Z,100841.63
2023-05-19T17:44:02.797Z,100852.16
2023-05-19T17:47:05.364Z,100851.22
2023-05-19T17:50:07.513Z,100863.09
2023-05-19T17:53:09.539Z,100861.41
2023-05-19T17:56:12.051Z,100858.53
2023-05-19T17:59:14.101Z,100860.84
2023-05-19T18:02:18.909Z,100856.53
2023-05-19T18:05:21.378Z,100859.59
2023-05-19T18:08:23.543Z,100857.31
2023-05-19T18:11:26.559Z,100851.63
2023-05-19T18:14:28.625Z,100858.53
2023-05-19T18:17:30.645Z,100856.41
2023-05-19T18:20:34.008Z,100850.59
2023-05-19T18:23:36.198Z,100859.59
2023-05-19T18:26:41.884Z,100856.72
2023-05-19T18:29:44.041Z,100861.16
2023-05-19T18:32:46.004Z,100862.47
2023-05-19T18:35:48.120Z,100862.00
2023-05-19T18:38:50.172Z,100871.19
2023-05-19T18:41:52.282Z,100867.63
2023-05-19T18:44:54.347Z,100870.59
2023-05-19T18:47:57.367Z,100877.19
2023-05-19T18:50:59.401Z,100880.22
2023-05-19T18:54:01.383Z,100889.44
2023-05-19T18:57:03.689Z,100888.84
2023-05-19T19:00:05.868Z,100886.66
2023-05-19T19:03:10.298Z,100883.28
2023-05-19T19:06:12.558Z,100882.78
2023-05-19T19:09:14.658Z,100887.16
2023-05-19T19:15:18.586Z,100890.31
2023-05-19T19:18:20.658Z,100881.56
2023-05-19T19:21:24.432Z,100896.81
2023-05-19T19:24:29.094Z,100903.44
2023-05-19T19:27:31.306Z,100908.81
2023-05-19T19:30:33.453Z,100903.38
2023-05-19T19:33:35.691Z,100895.69
2023-05-19T19:36:37.617Z,100901.69
2023-05-19T19:39:39.714Z,100899.34
2023-05-19T19:42:41.698Z,100913.00
2023-05-19T19:45:43.686Z,100912.84
2023-05-19T19:48:45.707Z,100919.53
2023-05-19T19:51:47.642Z,100924.69
2023-05-19T19:54:49.675Z,100920.09
2023-05-19T19:57:51.575Z,100922.38
2023-05-19T20:01:00.302Z,100938.00
2023-05-19T20:04:02.389Z,100931.13
2023-05-19T20:07:04.486Z,100931.41
2023-05-19T20:10:06.713Z,100933.19
2023-05-19T20:13:08.676Z,100931.44
2023-05-19T20:16:10.746Z,100929.97
2023-05-19T20:19:12.678Z,100934.41
2023-05-19T20:22:14.877Z,100936.41
2023-05-19T20:25:19.360Z,100929.19
2023-05-19T20:28:24.096Z,100925.47
2023-05-19T20:31:26.281Z,100940.56
2023-05-19T20:34:28.198Z,100923.56
2023-05-19T20:37:30.194Z,100934.81
2023-05-19T20:40:32.383Z,100932.75
2023-05-19T20:43:34.293Z,100936.47
2023-05-19T20:46:36.353Z,100922.59
2023-05-19T20:49:38.269Z,100926.84
2023-05-19T20:52:40.121Z,100932.72
2023-05-19T20:55:44.309Z,100927.66
2023-05-19T20:58:46.296Z,100928.50
2023-05-19T21:01:48.247Z,100930.66
2023-05-19T21:04:50.873Z,100933.56
2023-05-19T21:07:52.773Z,100939.19
2023-05-19T21:10:54.801Z,100929.97
2023-05-19T21:13:56.826Z,100933.50
2023-05-19T21:16:58.925Z,100931.31
2023-05-19T21:20:01.182Z,100936.53
2023-05-19T21:23:03.024Z,100928.94
2023-05-19T21:26:06.261Z,100929.91
2023-05-19T21:29:08.309Z,100930.00
2023-05-19T21:32:10.265Z,100932.13
2023-05-19T21:35:14.314Z,100936.00
2023-05-19T21:41:24.458Z,100928.34
2023-05-19T21:44:26.456Z,100934.53
2023-05-19T21:47:28.514Z,100924.16
2023-05-19T21:50:30.997Z,100931.25
2023-05-19T21:53:32.960Z,100921.00
2023-05-19T21:56:34.916Z,100920.78
2023-05-19T21:59:36.802Z,100919.00
2023-05-19T22:02:39.502Z,100922.88
2023-05-19T22:05:41.428Z,100921.16
2023-05-19T22:08:43.479Z,100925.00
2023-05-19T22:11:48.042Z,100921.00
2023-05-19T22:14:50.045Z,100918.78
2023-05-19T22:17:51.969Z,100916.44
2023-05-19T22:20:53.905Z,100907.19
2023-05-19T22:23:55.976Z,100902.31
2023-05-19T22:26:57.940Z,100896.47
2023-05-19T22:30:00.014Z,100897.91
2023-05-19T22:33:02.253Z,100884.13
2023-05-19T22:36:04.552Z,100883.69
2023-05-19T22:39:06.416Z,100892.50
2023-05-19T22:42:08.468Z,100885.97
2023-05-19T22:45:10.619Z,100886.69
2023-05-19T22:48:12.737Z,100887.00
2023-05-19T22:51:14.670Z,100884.56
2023-05-19T22:54:16.624Z,100886.31
2023-05-19T22:57:19.418Z,100892.28
2023-05-19T23:00:21.660Z,100898.03
2023-05-19T23:03:23.640Z,100881.37
2023-05-19T23:06:25.587Z,100878.53
2023-05-19T23:09:27.608Z,100877.22
2023-05-19T23:12:29.477Z,100869.16
2023-05-19T23:15:31.601Z,100867.13
2023-05-19T23:18:33.598Z,100866.19
2023-05-19T23:21:36.033Z,100863.28
2023-05-19T23:24:37.991Z,100874.44
2023-05-19T23:27:39.982Z,100876.97
2023-05-19T23:30:42.097Z,100877.25
2023-05-19T23:33:44.014Z,100876.53
2023-05-19T23:36:45.955Z,100873.84
2023-05-19T23:39:47.868Z,100870.50
2023-05-19T23:42:49.826Z,100864.16
2023-05-19T23:45:51.768Z,100872.41
2023-05-19T23:48:53.688Z,100871.84
2023-05-19T23:52:00.874Z,100867.19
2023-05-19T23:55:03.683Z,100865.81
2023-05-19T23:58:05.668Z,100862.22
